Time;durP1;ratioP1;P1;durP2;ratioP2;P2;SDS_P1;SDS_P2;PMS_P1;PMS_P2;Temp;Humidity;BMP_temperature;BMP_pressure;BME280_temperature;BME280_humidity;BME280_pressure;Samples;Min_cycle;Max_cycle;Signal;HPM_P1;HPM_P2
2022/10/21 00:01:08;;;;;;;;;;;15.10;88.60;;;;;;5096677;28;19947;-90
2022/10/21 00:03:33;;;;;;;;;;;15.20;89.10;;;;;;5096848;28;20019;-89
2022/10/21 00:05:59;;;;;;;;;;;15.20;88.20;;;;;;5096907;28;19947;-90
2022/10/21 00:08:25;;;;;;;;;;;15.20;87.70;;;;;;5096836;28;19954;-91
2022/10/21 00:10:51;;;;;;;;;;;15.30;87.90;;;;;;5096800;28;19943;-91
2022/10/21 00:13:17;;;;;;;;;;;15.30;88.00;;;;;;5096532;28;19948;-90
2022/10/21 00:15:42;;;;;;;;;;;15.30;87.90;;;;;;5096724;28;20041;-89
2022/10/21 00:18:08;;;;;;;;;;;15.30;88.00;;;;;;5096377;28;19988;-90
2022/10/21 00:20:33;;;;;;;;;;;15.30;89.10;;;;;;5096630;28;19940;-90
2022/10/21 00:22:59;;;;;;;;;;;15.20;89.40;;;;;;5096511;28;20006;-90
2022/10/21 00:25:25;;;;;;;;;;;15.20;89.20;;;;;;5096552;28;19938;-90
2022/10/21 00:27:50;;;;;;;;;;;15.20;89.40;;;;;;5096139;28;20318;-91
2022/10/21 00:30:16;;;;;;;;;;;15.10;89.00;;;;;;5096440;28;20383;-90
2022/10/21 00:32:41;;;;;;;;;;;15.10;89.20;;;;;;5096388;28;19938;-90
2022/10/21 00:35:07;;;;;;;;;;;15.00;89.60;;;;;;5078151;28;19947;-90
2022/10/21 00:37:32;;;;;;;;;;;14.90;90.40;;;;;;5095960;28;20028;-90
2022/10/21 00:39:58;;;;;;;;;;;14.90;91.60;;;;;;5096304;28;19970;-90
2022/10/21 00:42:28;;;;;;;;;;;14.90;91.60;;;;;;5078042;28;19945;-90
2022/10/21 00:45:20;;;;;;;;;;;14.90;91.50;;;;;;5096054;28;20396;-90
2022/10/21 00:47:49;;;;;;;;;;;14.90;91.60;;;;;;5072519;28;20404;-90
2022/10/21 00:50:33;;;;;;;;;;;14.90;91.80;;;;;;5075769;28;19939;-90
2022/10/21 00:53:00;;;;;;;;;;;15.00;92.10;;;;;;5075079;28;19953;-90
2022/10/21 00:55:27;;;;;;;;;;;15.10;92.30;;;;;;5076958;28;19938;-90
2022/10/21 00:57:53;;;;;;;;;;;15.10;92.30;;;;;;5095871;28;20273;-90
2022/10/21 01:00:19;;;;;;;;;;;15.10;92.20;;;;;;5095829;28;20310;-90
2022/10/21 01:02:44;;;;;;;;;;;15.20;91.70;;;;;;5095822;28;20022;-89
2022/10/21 01:05:10;;;;;;;;;;;15.20;91.50;;;;;;5095610;28;19960;-90
2022/10/21 01:07:36;;;;;;;;;;;15.10;91.30;;;;;;5095500;28;19947;-90
2022/10/21 01:10:01;;;;;;;;;;;15.10;91.40;;;;;;5095637;28;19945;-90
2022/10/21 01:12:33;;;;;;;;;;;15.10;91.30;;;;;;5095666;28;20402;-90
2022/10/21 01:15:21;;;;;;;;;;;15.20;91.00;;;;;;5095510;28;19963;-90
2022/10/21 01:17:59;;;;;;;;;;;15.20;91.00;;;;;;5066856;28;19945;-89
2022/10/21 01:20:37;;;;;;;;;;;15.30;91.10;;;;;;5073957;28;20390;-90
2022/10/21 01:23:02;;;;;;;;;;;15.30;91.40;;;;;;5075100;28;20393;-89
2022/10/21 01:25:28;;;;;;;;;;;15.30;91.50;;;;;;5076276;28;19987;-90
2022/10/21 01:27:56;;;;;;;;;;;15.30;91.40;;;;;;5095055;28;19936;-90
2022/10/21 01:30:36;;;;;;;;;;;15.30;91.30;;;;;;5095289;28;19941;-90
2022/10/21 01:33:10;;;;;;;;;;;15.30;91.10;;;;;;5095197;28;19984;-90
2022/10/21 01:35:40;;;;;;;;;;;15.30;91.20;;;;;;5094856;28;20347;-90
2022/10/21 01:38:06;;;;;;;;;;;15.30;91.20;;;;;;5077081;28;20041;-90
2022/10/21 01:40:34;;;;;;;;;;;15.30;91.00;;;;;;5095073;28;19981;-90
2022/10/21 01:43:07;;;;;;;;;;;15.30;91.00;;;;;;5094929;28;19935;-89
2022/10/21 01:45:38;;;;;;;;;;;15.30;91.20;;;;;;5094982;28;20031;-90
2022/10/21 01:48:06;;;;;;;;;;;15.30;91.00;;;;;;5094751;28;20116;-91
2022/10/21 01:50:33;;;;;;;;;;;15.40;91.00;;;;;;5094915;28;20089;-90
2022/10/21 01:53:02;;;;;;;;;;;15.30;91.00;;;;;;5094739;28;20301;-90
2022/10/21 01:55:29;;;;;;;;;;;15.30;91.10;;;;;;5094555;28;19949;-90
2022/10/21 01:57:57;;;;;;;;;;;15.30;91.20;;;;;;5094682;28;19935;-90
2022/10/21 02:00:23;;;;;;;;;;;15.40;91.30;;;;;;5094671;28;19939;-90
2022/10/21 02:02:49;;;;;;;;;;;15.40;91.30;;;;;;5094397;28;19949;-90
2022/10/21 02:05:19;;;;;;;;;;;15.40;91.20;;;;;;5093411;28;19966;-90
2022/10/21 02:07:45;;;;;;;;;;;15.30;91.00;;;;;;5094556;28;19939;-90
2022/10/21 02:10:10;;;;;;;;;;;15.30;90.90;;;;;;5094421;28;20386;-90
2022/10/21 02:12:38;;;;;;;;;;;15.20;90.80;;;;;;5076374;28;20027;-89
2022/10/21 02:15:06;;;;;;;;;;;15.10;91.00;;;;;;5094169;28;20042;-90
2022/10/21 02:17:32;;;;;;;;;;;15.00;91.30;;;;;;5094386;28;19942;-90
2022/10/21 02:19:59;;;;;;;;;;;15.00;91.40;;;;;;5094330;28;19997;-90
2022/10/21 02:22:25;;;;;;;;;;;14.90;91.40;;;;;;5094269;28;20401;-90
2022/10/21 02:24:52;;;;;;;;;;;14.90;91.70;;;;;;5093784;28;19968;-89
2022/10/21 02:27:18;;;;;;;;;;;14.90;92.00;;;;;;5094151;28;20468;-89
2022/10/21 02:29:44;;;;;;;;;;;14.90;92.20;;;;;;5093955;28;20001;-89
2022/10/21 02:32:13;;;;;;;;;;;14.90;92.40;;;;;;5094126;28;19984;-90
2022/10/21 02:34:44;;;;;;;;;;;14.90;92.30;;;;;;5093852;28;19946;-90
2022/10/21 02:37:24;;;;;;;;;;;14.90;92.20;;;;;;5094277;28;19942;-90
2022/10/21 02:39:51;;;;;;;;;;;14.90;92.20;;;;;;5093937;28;19988;-90
2022/10/21 02:42:21;;;;;;;;;;;14.90;92.10;;;;;;5093907;28;20378;-89
2022/10/21 02:44:47;;;;;;;;;;;14.90;91.80;;;;;;5075409;28;19957;-90
2022/10/21 02:47:14;;;;;;;;;;;14.90;91.70;;;;;;5093808;28;19936;-90
2022/10/21 02:49:40;;;;;;;;;;;14.90;91.70;;;;;;5093736;28;19942;-90
2022/10/21 02:52:05;;;;;;;;;;;14.90;91.60;;;;;;5093575;28;19964;-90
2022/10/21 02:54:31;;;;;;;;;;;14.90;91.50;;;;;;5093513;28;20036;-90
2022/10/21 02:56:56;;;;;;;;;;;14.90;91.50;;;;;;5093891;28;19951;-89
2022/10/21 02:59:22;;;;;;;;;;;14.90;91.20;;;;;;5093619;28;19941;-90
2022/10/21 03:01:48;;;;;;;;;;;14.90;90.70;;;;;;5093618;28;19936;-89
2022/10/21 03:04:13;;;;;;;;;;;14.90;90.60;;;;;;5093230;28;20049;-90
2022/10/21 03:06:39;;;;;;;;;;;14.80;90.20;;;;;;5093534;28;20035;-90
2022/10/21 03:09:04;;;;;;;;;;;14.80;89.60;;;;;;5093507;28;19987;-90
2022/10/21 03:11:30;;;;;;;;;;;14.70;89.10;;;;;;5093530;28;19943;-89
2022/10/21 03:13:55;;;;;;;;;;;14.70;89.10;;;;;;5093465;28;19939;-90
2022/10/21 03:16:21;;;;;;;;;;;14.60;88.70;;;;;;5092713;28;19948;-90
2022/10/21 03:18:46;;;;;;;;;;;14.60;88.80;;;;;;5093407;28;19943;-90
2022/10/21 03:21:12;;;;;;;;;;;14.60;88.40;;;;;;5093393;28;19980;-90
2022/10/21 03:23:37;;;;;;;;;;;14.50;88.50;;;;;;5093270;28;19954;-90
2022/10/21 03:26:03;;;;;;;;;;;14.50;89.00;;;;;;5093042;28;20043;-90
2022/10/21 03:28:29;;;;;;;;;;;14.60;89.50;;;;;;5093143;28;20022;-90
2022/10/21 03:30:55;;;;;;;;;;;14.60;89.50;;;;;;5093265;28;20020;-90
2022/10/21 03:33:20;;;;;;;;;;;14.50;89.60;;;;;;5093011;28;20049;-90
2022/10/21 03:35:46;;;;;;;;;;;14.50;89.60;;;;;;5092894;28;19944;-90
2022/10/21 03:38:11;;;;;;;;;;;14.40;90.10;;;;;;5093117;28;20411;-90
2022/10/21 03:40:37;;;;;;;;;;;14.40;90.20;;;;;;5093182;28;20037;-90
2022/10/21 03:43:02;;;;;;;;;;;14.40;90.10;;;;;;5093082;28;19991;-90
2022/10/21 03:45:28;;;;;;;;;;;14.40;90.40;;;;;;5093169;28;19973;-90
2022/10/21 03:47:54;;;;;;;;;;;14.30;90.20;;;;;;5093101;28;19940;-89
2022/10/21 03:50:19;;;;;;;;;;;14.30;90.80;;;;;;5093302;28;19984;-90
2022/10/21 03:52:45;;;;;;;;;;;14.10;91.40;;;;;;5093126;28;20018;-89
2022/10/21 03:55:11;;;;;;;;;;;14.20;92.00;;;;;;5092634;28;20415;-90
2022/10/21 03:57:36;;;;;;;;;;;14.30;92.20;;;;;;5092826;28;19993;-90
2022/10/21 04:00:03;;;;;;;;;;;14.30;92.40;;;;;;5092992;28;19940;-90
2022/10/21 04:02:28;;;;;;;;;;;14.30;92.10;;;;;;5092801;28;20424;-90
2022/10/21 04:04:54;;;;;;;;;;;14.30;91.90;;;;;;5092534;28;19988;-89
2022/10/21 04:07:19;;;;;;;;;;;14.30;91.80;;;;;;5092878;28;20456;-89
2022/10/21 04:09:45;;;;;;;;;;;14.30;91.80;;;;;;5092899;28;20045;-89
2022/10/21 04:12:11;;;;;;;;;;;14.30;91.60;;;;;;5092866;28;20027;-89
2022/10/21 04:14:36;;;;;;;;;;;14.20;91.50;;;;;;5092353;28;19946;-90
2022/10/21 04:17:02;;;;;;;;;;;14.20;91.60;;;;;;5092781;28;20423;-90
2022/10/21 04:19:27;;;;;;;;;;;14.20;91.60;;;;;;5092808;28;19942;-89
2022/10/21 04:21:53;;;;;;;;;;;14.20;91.60;;;;;;5092780;28;19942;-90
2022/10/21 04:24:18;;;;;;;;;;;14.10;91.70;;;;;;5092367;28;19966;-90
2022/10/21 04:26:44;;;;;;;;;;;14.20;91.90;;;;;;5093127;28;19944;-89
2022/10/21 04:29:10;;;;;;;;;;;14.20;91.30;;;;;;5096254;28;19979;-90
2022/10/21 04:31:35;;;;;;;;;;;14.20;91.00;;;;;;5078206;28;19945;-90
2022/10/21 04:34:01;;;;;;;;;;;14.10;90.40;;;;;;5096318;28;20411;-90
2022/10/21 04:36:26;;;;;;;;;;;14.20;90.60;;;;;;5078191;28;19984;-90
2022/10/21 04:38:52;;;;;;;;;;;14.20;90.40;;;;;;5096274;28;19942;-90
2022/10/21 04:41:17;;;;;;;;;;;14.20;90.90;;;;;;5096233;28;19941;-90
2022/10/21 04:43:43;;;;;;;;;;;14.20;91.30;;;;;;5095829;28;19971;-90
2022/10/21 04:46:10;;;;;;;;;;;14.10;90.90;;;;;;5096024;28;19945;-90
2022/10/21 04:48:35;;;;;;;;;;;14.10;90.40;;;;;;5096122;28;19936;-89
2022/10/21 04:51:01;;;;;;;;;;;14.10;90.20;;;;;;5095891;28;19987;-90
2022/10/21 04:53:26;;;;;;;;;;;14.10;90.40;;;;;;5094583;28;20042;-90
2022/10/21 04:55:52;;;;;;;;;;;14.10;90.20;;;;;;5095347;28;20415;-90
2022/10/21 04:58:18;;;;;;;;;;;14.00;89.70;;;;;;5095829;28;20468;-90
2022/10/21 05:00:44;;;;;;;;;;;13.90;89.20;;;;;;5095090;28;19986;-90
2022/10/21 05:03:10;;;;;;;;;;;13.90;89.30;;;;;;5095533;28;19979;-90
2022/10/21 05:05:35;;;;;;;;;;;13.90;89.40;;;;;;5093555;28;19944;-90
2022/10/21 05:08:01;;;;;;;;;;;14.00;89.80;;;;;;5093898;28;19985;-90
2022/10/21 05:10:29;;;;;;;;;;;14.00;90.20;;;;;;5095053;28;19975;-90
2022/10/21 05:12:55;;;;;;;;;;;14.00;91.00;;;;;;5095246;28;19941;-89
2022/10/21 05:15:21;;;;;;;;;;;14.00;91.40;;;;;;5099030;28;20404;-89
2022/10/21 05:17:46;;;;;;;;;;;14.10;91.50;;;;;;5094561;28;19941;-89
2022/10/21 05:20:12;;;;;;;;;;;14.10;91.30;;;;;;5093800;28;19957;-89
2022/10/21 05:22:37;;;;;;;;;;;14.10;91.20;;;;;;5075419;28;19976;-90
2022/10/21 05:25:03;;;;;;;;;;;14.10;91.30;;;;;;5093590;28;19967;-89
2022/10/21 05:27:28;;;;;;;;;;;14.10;91.50;;;;;;5094110;28;19946;-89
2022/10/21 05:29:54;;;;;;;;;;;14.20;92.30;;;;;;5093931;28;20015;-89
2022/10/21 05:32:19;;;;;;;;;;;14.20;91.90;;;;;;5091213;28;20391;-89
2022/10/21 05:34:45;;;;;;;;;;;14.10;91.10;;;;;;5084560;28;19978;-90
2022/10/21 05:37:11;;;;;;;;;;;14.10;90.50;;;;;;5093532;28;19988;-89
2022/10/21 05:39:36;;;;;;;;;;;13.90;90.30;;;;;;5094931;28;19976;-89
2022/10/21 05:42:02;;;;;;;;;;;13.90;90.80;;;;;;5094051;28;19993;-89
2022/10/21 05:44:27;;;;;;;;;;;14.00;90.90;;;;;;5093952;28;19960;-88
2022/10/21 05:46:53;;;;;;;;;;;14.10;90.90;;;;;;5091533;28;19973;-88
2022/10/21 05:49:18;;;;;;;;;;;14.20;90.80;;;;;;5090934;28;19941;-89
2022/10/21 05:51:44;;;;;;;;;;;14.30;90.50;;;;;;5092596;28;19958;-89
2022/10/21 05:54:09;;;;;;;;;;;14.30;90.10;;;;;;5083207;28;20046;-89
2022/10/21 05:56:35;;;;;;;;;;;14.40;90.50;;;;;;5086765;28;19942;-88
2022/10/21 05:59:01;;;;;;;;;;;14.40;90.50;;;;;;5087309;28;19951;-89
2022/10/21 06:01:26;;;;;;;;;;;14.40;91.20;;;;;;5089868;28;20039;-89
2022/10/21 06:03:52;;;;;;;;;;;14.50;91.30;;;;;;5091477;28;20403;-89
2022/10/21 06:06:17;;;;;;;;;;;14.60;91.30;;;;;;5093527;28;20020;-89
2022/10/21 06:08:43;;;;;;;;;;;14.60;91.20;;;;;;5094627;28;20069;-89
2022/10/21 06:11:10;;;;;;;;;;;14.70;91.00;;;;;;5097129;28;19987;-90
2022/10/21 06:13:36;;;;;;;;;;;14.70;90.10;;;;;;5090700;28;19952;-89
2022/10/21 06:16:02;;;;;;;;;;;14.70;89.90;;;;;;5088052;28;19951;-89
2022/10/21 06:18:28;;;;;;;;;;;14.70;89.70;;;;;;5093900;28;19950;-88
2022/10/21 06:20:53;;;;;;;;;;;14.70;89.60;;;;;;5091335;28;20003;-88
2022/10/21 06:23:19;;;;;;;;;;;14.70;89.60;;;;;;5091676;28;19954;-90
2022/10/21 06:26:17;;;;;;;;;;;14.80;89.70;;;;;;5091149;28;19949;-90
2022/10/21 06:28:43;;;;;;;;;;;14.90;89.30;;;;;;5056003;22;19976;-89
2022/10/21 06:31:11;;;;;;;;;;;15.00;88.90;;;;;;5072382;28;19953;-89
2022/10/21 06:33:38;;;;;;;;;;;15.00;88.70;;;;;;5053319;28;20206;-88
2022/10/21 06:36:04;;;;;;;;;;;15.10;89.00;;;;;;5073412;28;20396;-88
2022/10/21 06:38:31;;;;;;;;;;;15.00;89.20;;;;;;5068414;28;19946;-88
2022/10/21 06:41:01;;;;;;;;;;;15.00;89.60;;;;;;5050687;28;19943;-88
2022/10/21 06:43:26;;;;;;;;;;;15.00;89.70;;;;;;5061054;28;19939;-89
2022/10/21 06:45:52;;;;;;;;;;;15.00;89.60;;;;;;5069671;28;20006;-89
2022/10/21 06:48:17;;;;;;;;;;;15.00;89.50;;;;;;5072896;28;19946;-89
2022/10/21 06:50:43;;;;;;;;;;;14.90;89.60;;;;;;5070192;28;20375;-88
2022/10/21 06:53:08;;;;;;;;;;;14.90;89.80;;;;;;5092401;28;19948;-88
2022/10/21 06:55:34;;;;;;;;;;;15.00;89.90;;;;;;5093498;28;19953;-89
2022/10/21 06:58:00;;;;;;;;;;;15.10;90.00;;;;;;5093297;28;19948;-89
2022/10/21 07:00:25;;;;;;;;;;;15.30;89.80;;;;;;5093403;28;19944;-89
2022/10/21 07:02:51;;;;;;;;;;;15.40;89.70;;;;;;5093551;28;20304;-89
2022/10/21 07:05:16;;;;;;;;;;;15.70;89.10;;;;;;5103230;28;19954;-89
2022/10/21 07:07:42;;;;;;;;;;;16.00;88.20;;;;;;5093695;28;20407;-88
2022/10/21 07:10:07;;;;;;;;;;;16.10;87.70;;;;;;5075906;28;19960;-89
2022/10/21 07:12:34;;;;;;;;;;;16.30;87.40;;;;;;5093743;28;19944;-89
2022/10/21 07:15:00;;;;;;;;;;;16.30;87.50;;;;;;5093669;28;19943;-89
2022/10/21 07:17:27;;;;;;;;;;;16.30;87.60;;;;;;5099237;28;20365;-89
2022/10/21 07:19:53;;;;;;;;;;;16.30;87.70;;;;;;5093752;28;19963;-89
2022/10/21 07:22:18;;;;;;;;;;;16.30;88.40;;;;;;5093288;28;19990;-89
2022/10/21 07:24:44;;;;;;;;;;;16.30;88.70;;;;;;5074939;28;19959;-89
2022/10/21 07:27:09;;;;;;;;;;;16.30;88.80;;;;;;5095496;28;19938;-90
2022/10/21 07:29:35;;;;;;;;;;;16.30;88.90;;;;;;5109287;28;19979;-89
2022/10/21 07:32:00;;;;;;;;;;;16.30;88.90;;;;;;5093676;28;19944;-90
2022/10/21 07:34:26;;;;;;;;;;;16.40;88.90;;;;;;5092618;28;20024;-89
2022/10/21 07:36:51;;;;;;;;;;;16.60;88.70;;;;;;5093346;28;19989;-89
2022/10/21 07:39:19;;;;;;;;;;;16.60;88.40;;;;;;5093478;28;20400;-90
2022/10/21 07:41:46;;;;;;;;;;;16.70;88.30;;;;;;5086030;28;19940;-90
2022/10/21 07:44:12;;;;;;;;;;;16.80;88.10;;;;;;5093224;28;19970;-90
2022/10/21 07:46:39;;;;;;;;;;;16.90;87.80;;;;;;5092919;28;19946;-89
2022/10/21 07:49:04;;;;;;;;;;;16.90;87.70;;;;;;5093345;28;19943;-89
2022/10/21 07:51:30;;;;;;;;;;;17.00;87.20;;;;;;5093159;28;19959;-89
2022/10/21 07:53:56;;;;;;;;;;;17.00;86.70;;;;;;5093466;28;20414;-89
2022/10/21 07:56:23;;;;;;;;;;;17.00;86.20;;;;;;5086577;28;19945;-90
2022/10/21 07:58:49;;;;;;;;;;;17.10;85.90;;;;;;5091507;28;20488;-89
2022/10/21 08:01:15;;;;;;;;;;;17.30;85.50;;;;;;5093332;28;20426;-90
2022/10/21 08:03:40;;;;;;;;;;;17.30;84.70;;;;;;5078849;28;19968;-90
2022/10/21 08:06:07;;;;;;;;;;;17.40;83.70;;;;;;5097245;28;20022;-89
2022/10/21 08:08:33;;;;;;;;;;;17.50;83.10;;;;;;5061755;28;19952;-89
2022/10/21 08:10:59;;;;;;;;;;;17.60;83.10;;;;;;5078828;28;19954;-90
2022/10/21 08:13:24;;;;;;;;;;;17.60;83.10;;;;;;5097415;28;20038;-89
2022/10/21 08:15:51;;;;;;;;;;;17.70;82.30;;;;;;5097184;28;20362;-90
2022/10/21 08:18:17;;;;;;;;;;;17.80;82.40;;;;;;5097311;28;19968;-89
2022/10/21 08:20:44;;;;;;;;;;;17.90;82.20;;;;;;5097041;28;19941;-91
2022/10/21 08:23:10;;;;;;;;;;;18.00;82.00;;;;;;5097032;28;19965;-89
2022/10/21 08:25:36;;;;;;;;;;;18.00;81.60;;;;;;5096719;28;19959;-89
2022/10/21 08:28:03;;;;;;;;;;;18.10;81.60;;;;;;5096803;28;19942;-88
2022/10/21 08:30:30;;;;;;;;;;;18.20;81.20;;;;;;5096959;28;19950;-90
2022/10/21 08:32:59;;;;;;;;;;;18.30;80.70;;;;;;5096935;28;19946;-90
2022/10/21 08:35:25;;;;;;;;;;;18.40;80.10;;;;;;5097077;28;19969;-89
2022/10/21 08:37:50;;;;;;;;;;;18.50;79.40;;;;;;5096624;28;19945;-90
2022/10/21 08:40:17;;;;;;;;;;;18.60;79.00;;;;;;5096493;28;19940;-90
2022/10/21 08:42:44;;;;;;;;;;;18.80;78.30;;;;;;5072633;28;20009;-88
2022/10/21 08:45:14;;;;;;;;;;;18.80;78.00;;;;;;5096561;28;20005;-89
2022/10/21 08:47:46;;;;;;;;;;;18.90;77.80;;;;;;5078215;28;20314;-89
2022/10/21 08:50:13;;;;;;;;;;;19.00;77.20;;;;;;5096833;28;19948;-89
2022/10/21 08:52:48;;;;;;;;;;;19.10;77.30;;;;;;5096543;28;19955;-89
2022/10/21 08:55:34;;;;;;;;;;;19.20;77.00;;;;;;5096586;28;19941;-90
2022/10/21 08:58:00;;;;;;;;;;;19.30;76.30;;;;;;5077622;28;19952;-89
2022/10/21 09:00:34;;;;;;;;;;;19.30;75.90;;;;;;5096353;28;19996;-88
2022/10/21 09:03:15;;;;;;;;;;;19.30;75.60;;;;;;5078173;28;20317;-89
2022/10/21 09:05:43;;;;;;;;;;;19.30;75.60;;;;;;5095611;28;20337;-90
2022/10/21 09:08:18;;;;;;;;;;;19.30;75.80;;;;;;5089056;28;20467;-89
2022/10/21 09:10:55;;;;;;;;;;;19.40;76.00;;;;;;5096134;28;19941;-89
2022/10/21 09:13:26;;;;;;;;;;;19.40;75.80;;;;;;5095583;28;19949;-89
2022/10/21 09:15:55;;;;;;;;;;;19.50;75.50;;;;;;5075753;28;19945;-90
2022/10/21 09:18:36;;;;;;;;;;;19.60;75.20;;;;;;5057829;28;19995;-89
2022/10/21 09:21:06;;;;;;;;;;;19.60;75.20;;;;;;5083450;28;20026;-90
2022/10/21 09:23:34;;;;;;;;;;;19.70;75.00;;;;;;5095595;28;19948;-90
2022/10/21 09:25:59;;;;;;;;;;;19.80;75.00;;;;;;5095211;28;19943;-90
2022/10/21 09:28:25;;;;;;;;;;;19.90;74.80;;;;;;5095115;28;20071;-90
2022/10/21 09:30:51;;;;;;;;;;;20.00;74.30;;;;;;5090796;28;19953;-90
2022/10/21 09:33:20;;;;;;;;;;;20.10;74.40;;;;;;5094904;28;19938;-89
2022/10/21 09:35:52;;;;;;;;;;;20.20;74.20;;;;;;5094619;28;19965;-89
2022/10/21 09:38:24;;;;;;;;;;;20.30;73.40;;;;;;5094399;28;20400;-90
2022/10/21 09:40:51;;;;;;;;;;;20.30;73.00;;;;;;5094982;28;19945;-90
2022/10/21 09:43:19;;;;;;;;;;;20.40;72.90;;;;;;5095048;28;19970;-89
2022/10/21 09:45:45;;;;;;;;;;;20.50;72.60;;;;;;5095097;28;20030;-89
2022/10/21 09:48:24;;;;;;;;;;;20.50;72.60;;;;;;5094856;28;20044;-90
2022/10/21 09:50:55;;;;;;;;;;;20.50;72.60;;;;;;5088440;28;19941;-89
2022/10/21 09:53:30;;;;;;;;;;;20.60;72.30;;;;;;5091307;28;19940;-88
2022/10/21 09:56:15;;;;;;;;;;;20.50;72.50;;;;;;5094960;28;19996;-89
2022/10/21 09:58:40;;;;;;;;;;;20.40;72.50;;;;;;5076640;28;19946;-89
2022/10/21 10:01:06;;;;;;;;;;;20.30;72.80;;;;;;5074933;28;20015;-89
2022/10/21 10:03:33;;;;;;;;;;;20.30;73.10;;;;;;5093881;28;19994;-90
2022/10/21 10:05:59;;;;;;;;;;;20.20;73.20;;;;;;5092756;28;19989;-89
2022/10/21 10:08:33;;;;;;;;;;;20.30;73.40;;;;;;5093471;28;20362;-90
2022/10/21 10:11:08;;;;;;;;;;;20.30;73.80;;;;;;5094683;28;19946;-89
2022/10/21 10:13:37;;;;;;;;;;;20.30;73.40;;;;;;5094515;28;20029;-90
2022/10/21 10:16:12;;;;;;;;;;;20.30;73.40;;;;;;5094767;28;19939;-90
2022/10/21 10:18:37;;;;;;;;;;;20.30;73.50;;;;;;5094684;28;19937;-89
2022/10/21 10:21:04;;;;;;;;;;;20.40;73.20;;;;;;5094590;28;20040;-89
2022/10/21 10:23:29;;;;;;;;;;;20.50;73.10;;;;;;5094553;28;19948;-90
2022/10/21 10:25:55;;;;;;;;;;;20.50;72.80;;;;;;5093774;28;19940;-90
2022/10/21 10:28:24;;;;;;;;;;;20.70;72.60;;;;;;5094082;28;19981;-90
2022/10/21 10:30:52;;;;;;;;;;;20.80;72.20;;;;;;5094494;28;19986;-90
2022/10/21 10:33:22;;;;;;;;;;;20.80;72.20;;;;;;5094334;28;20018;-89
2022/10/21 10:35:58;;;;;;;;;;;20.90;72.10;;;;;;5094369;28;19938;-89
2022/10/21 10:38:23;;;;;;;;;;;21.00;71.80;;;;;;5094261;28;19941;-90
2022/10/21 10:40:49;;;;;;;;;;;21.00;71.40;;;;;;5094194;28;19938;-89
2022/10/21 10:43:23;;;;;;;;;;;21.00;71.30;;;;;;5094220;28;19950;-88
2022/10/21 10:46:09;;;;;;;;;;;21.00;71.50;;;;;;5094268;28;19951;-89
2022/10/21 10:48:39;;;;;;;;;;;20.90;71.10;;;;;;5094051;28;19944;-89
2022/10/21 10:51:05;;;;;;;;;;;20.80;71.20;;;;;;5094013;28;19982;-90
2022/10/21 10:53:31;;;;;;;;;;;20.80;71.30;;;;;;5094037;28;19946;-89
2022/10/21 10:56:15;;;;;;;;;;;20.60;71.40;;;;;;5094228;28;20348;-89
2022/10/21 10:58:46;;;;;;;;;;;20.50;71.80;;;;;;5093996;28;20033;-89
2022/10/21 11:01:15;;;;;;;;;;;20.50;72.10;;;;;;5093788;28;19948;-89
2022/10/21 11:03:48;;;;;;;;;;;20.50;72.40;;;;;;5075938;28;20026;-90
2022/10/21 11:06:15;;;;;;;;;;;20.60;72.50;;;;;;5093734;28;20017;-90
2022/10/21 11:08:44;;;;;;;;;;;20.50;72.30;;;;;;5093602;28;19946;-89
2022/10/21 11:11:30;;;;;;;;;;;20.50;72.40;;;;;;5071590;28;19971;-89
2022/10/21 11:13:56;;;;;;;;;;;20.50;72.10;;;;;;5069945;28;19944;-89
2022/10/21 11:16:24;;;;;;;;;;;20.40;72.00;;;;;;5073388;28;19948;-89
2022/10/21 11:19:02;;;;;;;;;;;20.40;71.90;;;;;;5087012;28;20039;-90
2022/10/21 11:21:57;;;;;;;;;;;20.40;71.80;;;;;;5093075;28;20391;-90
2022/10/21 11:24:30;;;;;;;;;;;20.50;71.80;;;;;;5079779;28;20322;-89
2022/10/21 11:26:55;;;;;;;;;;;20.40;71.80;;;;;;5093383;28;19968;-89
2022/10/21 11:29:32;;;;;;;;;;;20.50;71.70;;;;;;5088727;28;19976;-89
2022/10/21 11:32:01;;;;;;;;;;;20.50;71.70;;;;;;5095094;28;20397;-89
2022/10/21 11:34:35;;;;;;;;;;;20.40;71.60;;;;;;5091343;28;20452;-89
2022/10/21 11:37:04;;;;;;;;;;;20.40;71.60;;;;;;5074942;28;19945;-90
2022/10/21 11:39:35;;;;;;;;;;;20.40;71.40;;;;;;5098643;28;19949;-89
2022/10/21 11:42:09;;;;;;;;;;;20.30;71.50;;;;;;5095685;28;20467;-89
2022/10/21 11:44:53;;;;;;;;;;;20.30;71.70;;;;;;5095290;28;19956;-89
2022/10/21 11:47:25;;;;;;;;;;;20.30;71.70;;;;;;5097925;28;20025;-89
2022/10/21 11:50:09;;;;;;;;;;;20.30;71.80;;;;;;5090302;28;19947;-90
2022/10/21 11:52:37;;;;;;;;;;;20.30;71.80;;;;;;5098114;28;19958;-89
2022/10/21 11:55:14;;;;;;;;;;;20.30;71.80;;;;;;5098480;28;19988;-89
2022/10/21 11:57:56;;;;;;;;;;;20.20;72.00;;;;;;5094088;28;19989;-89
2022/10/21 12:00:23;;;;;;;;;;;20.20;72.20;;;;;;5097698;28;19948;-90
2022/10/21 12:03:12;;;;;;;;;;;20.20;72.20;;;;;;5099472;28;19941;-89
2022/10/21 12:06:13;;;;;;;;;;;20.20;72.40;;;;;;5099472;28;19958;-89
2022/10/21 12:08:49;;;;;;;;;;;20.20;72.40;;;;;;4994780;28;20457;-90
2022/10/21 12:11:18;;;;;;;;;;;20.20;72.40;;;;;;5085498;28;20002;-90
2022/10/21 12:13:47;;;;;;;;;;;20.20;72.30;;;;;;5099400;28;19938;-90
2022/10/21 12:16:14;;;;;;;;;;;20.20;72.30;;;;;;5098628;28;19937;-90
2022/10/21 12:18:42;;;;;;;;;;;20.10;72.30;;;;;;5099616;28;19940;-90
2022/10/21 12:21:13;;;;;;;;;;;20.10;72.40;;;;;;5099214;28;19948;-90
2022/10/21 12:23:39;;;;;;;;;;;20.00;72.40;;;;;;5099866;28;19943;-89
2022/10/21 12:26:05;;;;;;;;;;;20.00;72.70;;;;;;5099124;28;19949;-89
2022/10/21 12:28:34;;;;;;;;;;;20.00;72.60;;;;;;5099458;28;20414;-89
2022/10/21 12:31:04;;;;;;;;;;;20.00;72.60;;;;;;5094170;28;19944;-90
2022/10/21 12:33:37;;;;;;;;;;;20.00;72.70;;;;;;5099375;28;19942;-90
2022/10/21 12:36:17;;;;;;;;;;;20.10;72.50;;;;;;5101930;28;19947;-89
2022/10/21 12:38:43;;;;;;;;;;;20.20;72.50;;;;;;5095511;28;19947;-90
2022/10/21 12:41:27;;;;;;;;;;;20.20;72.60;;;;;;5099270;28;20030;-90
2022/10/21 12:43:56;;;;;;;;;;;20.30;72.70;;;;;;5080043;28;20434;-89
2022/10/21 12:46:26;;;;;;;;;;;20.30;72.80;;;;;;5099618;28;19947;-90
2022/10/21 12:48:52;;;;;;;;;;;20.30;72.60;;;;;;5095747;28;20041;-89
2022/10/21 12:51:22;;;;;;;;;;;20.40;72.50;;;;;;5095657;28;20370;-90
2022/10/21 12:54:03;;;;;;;;;;;20.40;72.70;;;;;;5096439;28;20307;-90
2022/10/21 12:56:32;;;;;;;;;;;20.50;72.70;;;;;;5098208;28;19991;-90
2022/10/21 12:59:00;;;;;;;;;;;20.40;72.60;;;;;;5095853;28;19948;-90
2022/10/21 13:01:41;;;;;;;;;;;20.50;72.80;;;;;;5095879;28;19943;-90
2022/10/21 13:04:25;;;;;;;;;;;20.50;73.20;;;;;;5095611;28;19957;-90
2022/10/21 13:06:52;;;;;;;;;;;20.40;73.50;;;;;;5076580;28;19951;-90
2022/10/21 13:09:35;;;;;;;;;;;20.30;73.60;;;;;;5095986;28;19967;-90
2022/10/21 13:12:02;;;;;;;;;;;20.30;73.50;;;;;;5094523;28;19943;-89
2022/10/21 13:14:28;;;;;;;;;;;20.30;73.30;;;;;;5094998;28;19934;-90
2022/10/21 13:17:13;;;;;;;;;;;20.30;73.80;;;;;;5094381;28;19945;-90
2022/10/21 13:19:38;;;;;;;;;;;20.20;74.10;;;;;;5094674;28;20379;-90
2022/10/21 13:22:16;;;;;;;;;;;20.20;73.90;;;;;;5083815;28;20033;-90
2022/10/21 13:24:42;;;;;;;;;;;20.20;73.90;;;;;;5091035;28;20328;-90
2022/10/21 13:27:26;;;;;;;;;;;20.20;73.80;;;;;;5090015;28;20041;-90
2022/10/21 13:29:52;;;;;;;;;;;20.30;73.80;;;;;;5077037;28;19976;-90
2022/10/21 13:32:18;;;;;;;;;;;20.30;73.90;;;;;;5075278;28;19949;-90
2022/10/21 13:34:49;;;;;;;;;;;20.40;73.70;;;;;;5084497;28;19938;-91
2022/10/21 13:37:22;;;;;;;;;;;20.50;73.30;;;;;;5072600;28;19997;-90
2022/10/21 13:39:48;;;;;;;;;;;20.60;72.80;;;;;;5072200;28;19939;-90
2022/10/21 13:42:14;;;;;;;;;;;20.60;72.60;;;;;;5063262;28;19979;-90
2022/10/21 13:44:43;;;;;;;;;;;20.80;72.40;;;;;;5072459;28;19994;-90
2022/10/21 13:47:27;;;;;;;;;;;20.80;71.90;;;;;;5067553;28;19951;-90
2022/10/21 13:49:54;;;;;;;;;;;20.90;71.30;;;;;;5064752;28;20357;-91
2022/10/21 13:52:20;;;;;;;;;;;21.00;70.90;;;;;;5070278;28;19964;-90
2022/10/21 13:54:54;;;;;;;;;;;21.00;71.00;;;;;;5073861;28;19944;-90
2022/10/21 13:57:20;;;;;;;;;;;21.00;70.80;;;;;;5074045;28;19952;-90
2022/10/21 13:59:57;;;;;;;;;;;21.00;70.70;;;;;;5072372;28;19944;-90
2022/10/21 14:02:24;;;;;;;;;;;21.00;70.80;;;;;;5073282;28;19947;-89
2022/10/21 14:04:50;;;;;;;;;;;21.00;70.60;;;;;;5073482;28;19969;-90
2022/10/21 14:07:18;;;;;;;;;;;20.90;70.70;;;;;;5073327;28;19943;-90
2022/10/21 14:09:47;;;;;;;;;;;20.90;70.70;;;;;;5073774;28;20610;-90
2022/10/21 14:12:19;;;;;;;;;;;20.90;70.70;;;;;;5073326;28;19940;-90
2022/10/21 14:14:45;;;;;;;;;;;20.90;70.80;;;;;;5064968;28;19989;-90
2022/10/21 14:17:15;;;;;;;;;;;20.90;71.20;;;;;;5073477;28;19947;-89
2022/10/21 14:19:40;;;;;;;;;;;20.90;71.60;;;;;;5072938;28;19948;-90
2022/10/21 14:22:08;;;;;;;;;;;20.80;71.10;;;;;;5073235;28;19953;-90
2022/10/21 14:24:34;;;;;;;;;;;20.70;71.30;;;;;;5084366;28;19960;-90